Terminal Aerodrome Forecast
Issued by NWS

Home | Current Version | Previous Version | Text Only | Print | Product List | Glossary On
Versions: 1 2 3 4 5 6 7 8 9 10 11 12 13 14 15 16
000
FTUS44 KTSA 292329
TAFBVO
TAF
KBVO 292329Z 3000/3024 36005KT P6SM SCT050
     FM300900 00000KT 3SM BR SCT025
     FM301400 03005KT P6SM SCT050
      TEMPO 3014/3018 BKN025=

USA.gov is the U.S. government's official web portal to all federal, state and local government web resources and services.